createdAt,value
2023-02-18T00:00:42.098Z,27.83
2023-02-18T00:03:13.694Z,27.83
2023-02-18T00:05:44.168Z,27.84
2023-02-18T00:08:14.933Z,27.87
2023-02-18T00:10:45.827Z,27.88
2023-02-18T00:13:19.498Z,27.91
2023-02-18T00:15:50.841Z,27.88
2023-02-18T00:18:22.594Z,27.95
2023-02-18T00:20:53.629Z,28.06
2023-02-18T00:23:24.867Z,28.13
2023-02-18T00:26:02.681Z,28.20
2023-02-18T00:28:34.122Z,28.26
2023-02-18T00:31:09.971Z,28.24
2023-02-18T00:33:43.557Z,28.33
2023-02-18T00:36:18.736Z,28.36
2023-02-18T00:38:57.196Z,28.39
2023-02-18T00:41:30.137Z,28.47
2023-02-18T00:44:00.628Z,28.51
2023-02-18T00:46:31.639Z,28.58
2023-02-18T00:49:04.991Z,28.63
2023-02-18T00:51:35.824Z,28.65
2023-02-18T00:54:06.234Z,28.68
2023-02-18T00:56:37.142Z,28.76
2023-02-18T00:59:08.260Z,28.84
2023-02-18T01:01:41.405Z,28.87
2023-02-18T01:04:12.596Z,28.91
2023-02-18T01:06:43.562Z,28.95
2023-02-18T01:09:15.553Z,28.97
2023-02-18T01:11:47.630Z,28.99
2023-02-18T01:14:18.115Z,29.02
2023-02-18T01:16:49.115Z,29.05
2023-02-18T01:19:22.965Z,29.05
2023-02-18T01:21:54.335Z,29.12
2023-02-18T01:24:24.906Z,29.18
2023-02-18T01:26:56.197Z,29.18
2023-02-18T01:29:27.058Z,29.23
2023-02-18T01:31:59.209Z,29.22
2023-02-18T01:34:29.647Z,29.25
2023-02-18T01:37:02.460Z,29.30
2023-02-18T01:39:33.549Z,29.30
2023-02-18T01:42:04.950Z,29.38
2023-02-18T01:44:38.064Z,29.45
2023-02-18T01:47:23.850Z,29.46
2023-02-18T01:49:55.753Z,29.52
2023-02-18T01:52:33.386Z,29.50
2023-02-18T01:55:04.321Z,29.48
2023-02-18T01:57:37.995Z,29.57
2023-02-18T02:00:15.915Z,29.60
2023-02-18T02:02:52.677Z,29.66
2023-02-18T02:05:24.227Z,29.70
2023-02-18T02:07:56.241Z,29.73
2023-02-18T02:10:35.484Z,29.76
2023-02-18T02:13:28.450Z,29.70
2023-02-18T02:16:17.322Z,29.71
2023-02-18T02:18:56.091Z,29.68
2023-02-18T02:21:42.502Z,29.64
2023-02-18T02:24:29.627Z,29.61
2023-02-18T02:27:08.288Z,29.61
2023-02-18T02:30:03.788Z,29.61
2023-02-18T02:32:47.181Z,29.61
2023-02-18T02:36:06.789Z,29.68
2023-02-18T02:38:41.123Z,29.73
2023-02-18T02:41:46.594Z,29.83
2023-02-18T02:44:22.403Z,29.81
2023-02-18T02:46:57.297Z,30.00
2023-02-18T02:49:50.554Z,30.10
2023-02-18T02:52:28.491Z,30.16
2023-02-18T02:54:59.371Z,30.14
2023-02-18T02:57:30.321Z,30.16
2023-02-18T03:00:11.407Z,30.13
2023-02-18T03:02:55.980Z,30.16
2023-02-18T03:05:27.184Z,30.13
2023-02-18T03:08:15.876Z,30.17
2023-02-18T03:11:02.977Z,30.18
2023-02-18T03:13:55.242Z,30.26
2023-02-18T03:16:51.907Z,30.25
2023-02-18T03:19:38.576Z,30.29
2023-02-18T03:22:27.195Z,30.32
2023-02-18T03:25:01.340Z,30.36
2023-02-18T03:27:44.696Z,30.39
2023-02-18T03:30:36.339Z,30.48
2023-02-18T03:33:10.048Z,30.56
2023-02-18T03:35:42.847Z,30.54
2023-02-18T03:38:19.354Z,30.59
2023-02-18T03:40:50.171Z,30.56
2023-02-18T03:43:21.901Z,30.57
2023-02-18T03:45:52.645Z,30.57
2023-02-18T03:48:23.996Z,30.63
2023-02-18T03:50:55.708Z,30.64
2023-02-18T03:53:29.966Z,30.68
2023-02-18T03:56:01.012Z,30.74
2023-02-18T03:58:31.744Z,30.81
2023-02-18T04:01:02.961Z,30.85
2023-02-18T04:03:33.939Z,30.88
2023-02-18T04:06:05.613Z,30.95
2023-02-18T04:08:37.568Z,30.97
2023-02-18T04:11:09.326Z,31.05
2023-02-18T04:13:43.836Z,31.05
2023-02-18T04:16:15.537Z,31.12
2023-02-18T04:18:48.625Z,31.15
2023-02-18T04:21:19.932Z,31.14
2023-02-18T04:23:50.626Z,31.14
2023-02-18T04:26:22.109Z,31.17
2023-02-18T04:28:53.427Z,31.15
2023-02-18T04:31:24.501Z,31.22
2023-02-18T04:33:58.744Z,31.25
2023-02-18T04:36:37.923Z,31.20
2023-02-18T04:39:08.908Z,31.26
2023-02-18T04:41:39.711Z,31.30
2023-02-18T04:44:10.125Z,31.37
2023-02-18T04:46:40.786Z,31.43
2023-02-18T04:49:11.395Z,31.51
2023-02-18T04:51:42.353Z,31.56
2023-02-18T04:54:12.963Z,31.57
2023-02-18T04:56:44.211Z,31.65
2023-02-18T04:59:14.932Z,31.71
2023-02-18T05:01:45.732Z,31.75
2023-02-18T05:04:18.466Z,31.82
2023-02-18T05:06:49.047Z,31.87
2023-02-18T05:09:19.602Z,31.90
2023-02-18T05:11:50.297Z,31.99
2023-02-18T05:14:20.989Z,32.05
2023-02-18T05:16:51.728Z,32.04
2023-02-18T05:19:22.621Z,32.05
2023-02-18T05:21:53.174Z,32.00
2023-02-18T05:24:24.126Z,31.99
2023-02-18T05:26:54.767Z,32.07
2023-02-18T05:29:26.733Z,32.06
2023-02-18T05:31:58.070Z,32.13
2023-02-18T05:34:29.201Z,32.14
2023-02-18T05:37:00.240Z,32.12
2023-02-18T05:39:31.559Z,32.13
2023-02-18T05:42:04.888Z,32.11
2023-02-18T05:44:36.725Z,32.10
2023-02-18T05:47:11.582Z,32.06
2023-02-18T05:49:43.381Z,32.10
2023-02-18T05:52:23.016Z,32.12
2023-02-18T05:54:54.605Z,32.04
2023-02-18T05:57:25.043Z,32.10
2023-02-18T05:59:55.758Z,32.11
2023-02-18T06:02:26.483Z,32.15
2023-02-18T06:04:58.131Z,32.07
2023-02-18T06:07:28.976Z,32.09
2023-02-18T06:09:59.435Z,32.08
2023-02-18T06:12:30.162Z,32.07
2023-02-18T06:15:00.684Z,32.08
2023-02-18T06:17:31.401Z,32.07
2023-02-18T06:20:02.617Z,32.04
2023-02-18T06:22:34.008Z,32.06
2023-02-18T06:25:04.890Z,32.02
2023-02-18T06:27:36.029Z,32.09
2023-02-18T06:30:09.470Z,32.06
2023-02-18T06:32:40.734Z,32.15
2023-02-18T06:35:11.909Z,32.12
2023-02-18T06:37:42.414Z,32.11
2023-02-18T06:40:13.653Z,32.11
2023-02-18T06:42:44.297Z,32.10
2023-02-18T06:45:14.691Z,32.08
2023-02-18T06:47:45.212Z,32.06
2023-02-18T06:50:16.156Z,32.03
2023-02-18T06:52:46.953Z,31.99
2023-02-18T06:55:17.355Z,31.98
2023-02-18T06:57:48.696Z,31.99
2023-02-18T07:00:19.944Z,31.98
2023-02-18T07:02:50.692Z,31.92
2023-02-18T07:05:30.231Z,31.89
2023-02-18T07:08:00.985Z,31.86
2023-02-18T07:10:31.760Z,31.77
2023-02-18T07:13:02.651Z,31.82
2023-02-18T07:15:34.431Z,31.79
2023-02-18T07:18:05.231Z,31.84
2023-02-18T07:20:36.754Z,31.86
2023-02-18T07:23:08.154Z,31.86
2023-02-18T07:25:38.957Z,31.86
2023-02-18T07:28:10.124Z,31.85
2023-02-18T07:30:40.712Z,31.84
2023-02-18T07:33:11.714Z,31.83
2023-02-18T07:35:42.591Z,31.74
2023-02-18T07:38:13.424Z,31.67
2023-02-18T07:40:49.362Z,31.61
2023-02-18T07:43:20.259Z,31.59
2023-02-18T07:45:51.022Z,31.63
2023-02-18T07:48:21.686Z,31.62
2023-02-18T07:50:52.683Z,31.61
2023-02-18T07:53:23.189Z,31.52
2023-02-18T07:55:54.413Z,31.49
2023-02-18T07:58:30.432Z,31.45
2023-02-18T08:01:02.396Z,31.42
2023-02-18T08:03:35.346Z,31.34
2023-02-18T08:06:07.557Z,31.31
2023-02-18T08:08:39.298Z,31.29
2023-02-18T08:11:18.926Z,31.27
2023-02-18T08:13:50.608Z,31.32
2023-02-18T08:16:31.155Z,31.30
2023-02-18T08:19:04.423Z,31.32
2023-02-18T08:21:35.612Z,31.29
2023-02-18T08:24:06.681Z,31.29
2023-02-18T08:26:37.653Z,31.30
2023-02-18T08:29:09.290Z,31.22
2023-02-18T08:31:44.755Z,31.20
2023-02-18T08:34:15.653Z,31.21
2023-02-18T08:36:46.303Z,31.21
2023-02-18T08:39:17.235Z,31.12
2023-02-18T08:41:48.139Z,31.13
2023-02-18T08:44:19.282Z,31.15
2023-02-18T08:46:50.694Z,31.08
2023-02-18T08:49:22.085Z,31.07
2023-02-18T08:51:53.069Z,31.04
2023-02-18T08:54:24.369Z,31.02
2023-02-18T08:56:59.391Z,30.98
2023-02-18T08:59:30.881Z,30.97
2023-02-18T09:02:01.880Z,30.93
2023-02-18T09:04:33.021Z,30.85
2023-02-18T09:07:05.161Z,30.82
2023-02-18T09:09:35.557Z,30.81
2023-02-18T09:12:06.914Z,30.83
2023-02-18T09:14:37.377Z,30.84
2023-02-18T09:17:07.976Z,30.85
2023-02-18T09:19:39.060Z,30.88
2023-02-18T09:22:10.420Z,30.81
2023-02-18T09:24:43.218Z,30.82
2023-02-18T09:27:23.284Z,30.81
2023-02-18T09:29:54.503Z,30.77
2023-02-18T09:32:34.301Z,30.73
2023-02-18T09:35:07.019Z,30.73
2023-02-18T09:37:39.161Z,30.68
2023-02-18T09:40:15.194Z,30.65
2023-02-18T09:42:46.932Z,30.62
2023-02-18T09:45:17.653Z,30.62
2023-02-18T09:47:48.535Z,30.66
2023-02-18T09:50:31.372Z,30.62
2023-02-18T09:53:04.477Z,30.58
2023-02-18T09:55:42.211Z,30.55
2023-02-18T09:58:28.276Z,30.48
2023-02-18T10:01:12.391Z,30.54
2023-02-18T10:03:44.895Z,30.54
2023-02-18T10:06:21.745Z,30.54
2023-02-18T10:08:53.929Z,30.52
2023-02-18T10:11:44.960Z,30.52
2023-02-18T10:14:16.540Z,30.46
2023-02-18T10:16:48.884Z,30.41
2023-02-18T10:19:51.594Z,30.41
2023-02-18T10:22:25.376Z,30.32
2023-02-18T10:25:00.499Z,30.35
2023-02-18T10:27:35.986Z,30.26
2023-02-18T10:30:27.795Z,30.23
2023-02-18T10:33:12.257Z,30.24
2023-02-18T10:35:49.412Z,30.27
2023-02-18T10:38:43.835Z,30.28
2023-02-18T10:41:29.998Z,30.17
2023-02-18T10:44:38.758Z,30.17
2023-02-18T10:47:37.285Z,30.18
2023-02-18T10:50:14.553Z,30.08
2023-02-18T10:52:49.102Z,30.02
2023-02-18T10:55:20.684Z,30.05
2023-02-18T10:57:53.971Z,30.07
2023-02-18T11:00:29.637Z,30.00
2023-02-18T11:03:12.599Z,29.97
2023-02-18T11:05:45.144Z,29.99
2023-02-18T11:08:26.199Z,29.98
2023-02-18T11:10:57.355Z,29.98
2023-02-18T11:13:30.396Z,29.96
2023-02-18T11:16:05.283Z,29.98
2023-02-18T11:18:44.897Z,30.00
2023-02-18T11:21:36.791Z,30.03
2023-02-18T11:24:21.928Z,29.99
2023-02-18T11:26:53.175Z,30.01
2023-02-18T11:29:28.622Z,30.07
2023-02-18T11:32:00.232Z,30.07
2023-02-18T11:34:36.865Z,30.18
2023-02-18T11:37:14.771Z,30.23
2023-02-18T11:39:48.307Z,30.23
2023-02-18T11:42:22.552Z,30.22
2023-02-18T11:45:05.157Z,30.21
2023-02-18T11:47:37.582Z,30.15
2023-02-18T11:50:19.524Z,30.12
2023-02-18T11:52:52.407Z,30.11
2023-02-18T11:55:25.919Z,30.16
2023-02-18T11:58:00.864Z,30.18
2023-02-18T12:00:42.276Z,30.12
2023-02-18T12:03:27.804Z,30.02
2023-02-18T12:06:04.213Z,30.14
2023-02-18T12:08:47.482Z,30.13
2023-02-18T12:11:47.940Z,30.17
2023-02-18T12:14:25.981Z,30.17
2023-02-18T12:16:58.230Z,30.09
2023-02-18T12:19:46.918Z,30.04
2023-02-18T12:22:35.534Z,29.96
2023-02-18T12:25:28.589Z,29.96
2023-02-18T12:28:22.983Z,29.99
2023-02-18T12:31:15.402Z,29.96
2023-02-18T12:34:14.973Z,29.99
2023-02-18T12:37:11.057Z,29.88
2023-02-18T12:39:41.956Z,29.92
2023-02-18T12:42:21.650Z,29.99
2023-02-18T12:45:01.587Z,30.00
2023-02-18T12:47:55.846Z,29.98
2023-02-18T12:51:06.793Z,29.98
2023-02-18T12:53:42.156Z,29.92
2023-02-18T12:56:55.708Z,29.95
2023-02-18T12:59:38.343Z,29.98
2023-02-18T13:02:50.721Z,29.96
2023-02-18T13:05:43.221Z,29.97
2023-02-18T13:08:37.062Z,29.95
2023-02-18T13:11:15.310Z,29.91
2023-02-18T13:13:57.575Z,29.96
2023-02-18T13:16:29.517Z,29.90
2023-02-18T13:19:21.815Z,29.92
2023-02-18T13:21:58.193Z,29.88
2023-02-18T13:24:36.646Z,29.91
2023-02-18T13:27:34.879Z,29.93
2023-02-18T13:30:21.718Z,29.92
2023-02-18T13:33:01.445Z,29.87
2023-02-18T13:35:34.094Z,29.89
2023-02-18T13:38:34.949Z,29.90
2023-02-18T13:41:07.447Z,29.89
2023-02-18T13:43:38.806Z,29.88
2023-02-18T13:46:20.339Z,29.86
2023-02-18T13:49:02.795Z,29.90
2023-02-18T13:51:53.751Z,29.91
2023-02-18T13:54:30.981Z,29.86
2023-02-18T13:57:07.311Z,29.89
2023-02-18T13:59:39.760Z,29.87
2023-02-18T14:02:37.019Z,29.89
2023-02-18T14:05:11.200Z,29.82
2023-02-18T14:07:54.058Z,29.86
2023-02-18T14:10:28.983Z,29.87
2023-02-18T14:13:02.689Z,29.90
2023-02-18T14:15:33.977Z,29.90
2023-02-18T14:18:10.671Z,29.87
2023-02-18T14:20:53.524Z,29.86
2023-02-18T14:23:25.079Z,29.82
2023-02-18T14:25:58.521Z,29.87
2023-02-18T14:28:39.554Z,29.88
2023-02-18T14:31:43.935Z,29.90
2023-02-18T14:34:36.513Z,29.83
2023-02-18T14:37:12.528Z,29.78
2023-02-18T14:40:01.376Z,29.65
2023-02-18T14:42:46.258Z,29.64
2023-02-18T14:45:53.085Z,29.61
2023-02-18T14:48:41.467Z,29.60
2023-02-18T14:51:17.105Z,29.58
2023-02-18T14:53:48.319Z,29.55
2023-02-18T14:56:21.358Z,29.53
2023-02-18T14:58:59.112Z,29.48
2023-02-18T15:01:32.890Z,29.49
2023-02-18T15:04:04.206Z,29.46
2023-02-18T15:06:40.714Z,29.43
2023-02-18T15:09:21.217Z,29.47
2023-02-18T15:11:57.677Z,29.43
2023-02-18T15:14:39.783Z,29.42
2023-02-18T15:17:18.977Z,29.41
2023-02-18T15:19:59.626Z,29.41
2023-02-18T15:22:35.014Z,29.38
2023-02-18T15:25:06.264Z,29.43
2023-02-18T15:27:41.770Z,29.42
2023-02-18T15:30:45.060Z,29.42
2023-02-18T15:33:24.389Z,29.36
2023-02-18T15:36:03.228Z,29.36
2023-02-18T15:38:35.264Z,29.33
2023-02-18T15:41:07.105Z,29.32
2023-02-18T15:43:38.328Z,29.31
2023-02-18T15:46:15.528Z,29.33
2023-02-18T15:48:52.216Z,29.34
2023-02-18T15:51:27.772Z,29.30
2023-02-18T15:54:05.539Z,29.28
2023-02-18T15:56:39.064Z,29.27
2023-02-18T15:59:40.186Z,29.31
2023-02-18T16:02:11.415Z,29.30
2023-02-18T16:04:44.519Z,29.28
2023-02-18T16:07:31.932Z,29.31
2023-02-18T16:10:22.614Z,29.28
2023-02-18T16:13:01.419Z,29.30
2023-02-18T16:15:38.585Z,29.27
2023-02-18T16:18:28.684Z,29.27
2023-02-18T16:21:02.942Z,29.25
2023-02-18T16:23:42.770Z,29.27
2023-02-18T16:26:24.755Z,29.24
2023-02-18T16:28:56.355Z,29.22
2023-02-18T16:31:26.621Z,29.25
2023-02-18T16:33:57.562Z,29.22
2023-02-18T16:36:28.416Z,29.18
2023-02-18T16:38:59.675Z,29.29
2023-02-18T16:41:31.315Z,29.30
2023-02-18T16:44:02.413Z,29.29
2023-02-18T16:46:36.279Z,29.30
2023-02-18T16:49:06.800Z,29.31
2023-02-18T16:51:37.144Z,29.29
2023-02-18T16:54:08.603Z,29.29
2023-02-18T16:56:43.145Z,29.27
2023-02-18T16:59:14.110Z,29.24
2023-02-18T17:01:46.296Z,29.24
2023-02-18T17:04:18.859Z,29.22
2023-02-18T17:06:49.801Z,29.21
2023-02-18T17:09:23.179Z,29.19
2023-02-18T17:11:56.374Z,29.21
2023-02-18T17:14:26.999Z,29.18
2023-02-18T17:16:59.050Z,29.16
2023-02-18T17:19:30.285Z,29.13
2023-02-18T17:22:00.785Z,29.14
2023-02-18T17:24:31.636Z,29.14
2023-02-18T17:27:02.531Z,29.11
2023-02-18T17:29:33.450Z,29.11
2023-02-18T17:32:04.729Z,29.09
2023-02-18T17:34:37.140Z,29.07
2023-02-18T17:37:13.757Z,29.06
2023-02-18T17:39:44.297Z,29.07
2023-02-18T17:42:15.758Z,29.03
2023-02-18T17:44:46.718Z,29.02
2023-02-18T17:47:19.982Z,29.02
2023-02-18T17:49:50.602Z,28.98
2023-02-18T17:52:31.598Z,28.99
2023-02-18T17:55:02.174Z,28.97
2023-02-18T17:57:33.703Z,28.98
2023-02-18T18:00:05.470Z,28.98
2023-02-18T18:02:37.970Z,28.98
2023-02-18T18:05:11.463Z,28.97
2023-02-18T18:07:42.677Z,28.95
2023-02-18T18:10:14.164Z,28.96
2023-02-18T18:12:45.623Z,28.96
2023-02-18T18:15:27.698Z,28.98
2023-02-18T18:17:59.349Z,28.93
2023-02-18T18:20:31.513Z,28.93
2023-02-18T18:23:03.420Z,28.94
2023-02-18T18:25:38.104Z,28.94
2023-02-18T18:28:09.341Z,28.94
2023-02-18T18:30:45.512Z,28.91
2023-02-18T18:33:32.793Z,28.91
2023-02-18T18:36:03.841Z,28.90
2023-02-18T18:38:35.025Z,28.92
2023-02-18T18:41:05.610Z,28.88
2023-02-18T18:43:39.687Z,28.86
2023-02-18T18:46:10.477Z,28.87
2023-02-18T18:48:40.890Z,28.87
2023-02-18T18:51:20.682Z,28.82
2023-02-18T18:53:51.090Z,28.85
2023-02-18T18:56:22.915Z,28.80
2023-02-18T18:58:53.988Z,28.79
2023-02-18T19:01:28.043Z,28.76
2023-02-18T19:03:59.289Z,28.79
2023-02-18T19:06:29.736Z,28.77
2023-02-18T19:09:01.441Z,28.77
2023-02-18T19:11:32.644Z,28.76
2023-02-18T19:14:03.540Z,28.76
2023-02-18T19:16:39.273Z,28.76
2023-02-18T19:19:15.872Z,28.77
2023-02-18T19:21:47.601Z,28.77
2023-02-18T19:24:18.104Z,28.75
2023-02-18T19:26:49.014Z,28.73
2023-02-18T19:29:21.653Z,28.71
2023-02-18T19:31:53.212Z,28.71
2023-02-18T19:34:24.123Z,28.72
2023-02-18T19:36:55.114Z,28.70
2023-02-18T19:39:25.783Z,28.71
2023-02-18T19:41:59.958Z,28.69
2023-02-18T19:44:35.202Z,28.67
2023-02-18T19:47:05.844Z,28.66
2023-02-18T19:49:36.304Z,28.65
2023-02-18T19:52:07.343Z,28.64
2023-02-18T19:54:38.319Z,28.63
2023-02-18T19:57:09.272Z,28.63
2023-02-18T19:59:40.084Z,28.60
2023-02-18T20:02:17.883Z,28.60
2023-02-18T20:04:48.973Z,28.58
2023-02-18T20:07:24.422Z,28.59
2023-02-18T20:09:55.669Z,28.58
2023-02-18T20:12:27.625Z,28.58
2023-02-18T20:15:01.199Z,28.56
2023-02-18T20:17:33.180Z,28.53
2023-02-18T20:20:12.425Z,28.54
2023-02-18T20:22:43.085Z,28.53
2023-02-18T20:25:13.604Z,28.51
2023-02-18T20:27:58.464Z,28.53
2023-02-18T20:30:31.372Z,28.51
2023-02-18T20:33:01.800Z,28.49
2023-02-18T20:35:32.254Z,28.48
2023-02-18T20:38:02.655Z,28.49
2023-02-18T20:40:33.850Z,28.45
2023-02-18T20:43:04.503Z,28.44
2023-02-18T20:45:35.743Z,28.44
2023-02-18T20:48:08.897Z,28.37
2023-02-18T20:50:39.808Z,28.37
2023-02-18T20:53:10.387Z,28.39
2023-02-18T20:55:49.011Z,28.36
2023-02-18T20:58:22.434Z,28.33
2023-02-18T21:01:00.602Z,28.29
2023-02-18T21:03:31.520Z,28.28
2023-02-18T21:06:07.809Z,28.28
2023-02-18T21:08:40.687Z,28.25
2023-02-18T21:11:37.470Z,28.24
2023-02-18T21:14:08.239Z,28.20
2023-02-18T21:16:41.538Z,28.16
2023-02-18T21:19:18.827Z,28.18
2023-02-18T21:21:49.351Z,28.17
2023-02-18T21:24:20.003Z,28.14
2023-02-18T21:26:50.732Z,28.15
2023-02-18T21:29:21.234Z,28.13
2023-02-18T21:31:52.295Z,28.12
2023-02-18T21:34:26.550Z,28.11
2023-02-18T21:36:57.445Z,28.10
2023-02-18T21:39:28.321Z,28.07
2023-02-18T21:42:05.032Z,28.09
2023-02-18T21:44:42.303Z,28.05
2023-02-18T21:47:13.787Z,28.04
2023-02-18T21:49:44.351Z,28.04
2023-02-18T21:52:14.988Z,28.01
2023-02-18T21:54:46.440Z,27.98
2023-02-18T21:57:25.194Z,28.00
2023-02-18T21:59:56.047Z,27.98
2023-02-18T22:02:29.318Z,27.98
2023-02-18T22:05:03.118Z,27.94
2023-02-18T22:07:33.950Z,27.97
2023-02-18T22:10:04.635Z,27.92
2023-02-18T22:12:35.209Z,27.95
2023-02-18T22:15:06.342Z,27.93
2023-02-18T22:17:37.267Z,27.94
2023-02-18T22:20:09.195Z,27.92
2023-02-18T22:22:42.678Z,27.88
2023-02-18T22:25:13.519Z,27.89
2023-02-18T22:27:44.214Z,27.90
2023-02-18T22:30:15.569Z,27.89
2023-02-18T22:32:46.573Z,27.86
2023-02-18T22:35:18.351Z,27.90
2023-02-18T22:37:48.880Z,27.89
2023-02-18T22:40:19.516Z,27.81
2023-02-18T22:42:50.424Z,27.80
2023-02-18T22:45:21.052Z,27.76
2023-02-18T22:47:52.006Z,27.74
2023-02-18T22:50:22.950Z,27.78
2023-02-18T22:52:53.555Z,27.76
2023-02-18T22:55:24.469Z,27.69
2023-02-18T22:57:55.718Z,27.72
2023-02-18T23:00:27.095Z,27.72
2023-02-18T23:02:58.451Z,27.73
2023-02-18T23:05:29.699Z,27.72
2023-02-18T23:08:00.726Z,27.72
2023-02-18T23:10:31.410Z,27.81
2023-02-18T23:13:02.660Z,27.84
2023-02-18T23:15:33.345Z,27.90
2023-02-18T23:18:04.859Z,27.95
2023-02-18T23:20:55.467Z,27.97
2023-02-18T23:23:26.320Z,27.99
2023-02-18T23:26:02.502Z,27.99
2023-02-18T23:28:48.492Z,28.00
2023-02-18T23:31:27.098Z,28.04
2023-02-18T23:34:00.628Z,28.03
2023-02-18T23:36:33.186Z,28.04
2023-02-18T23:39:09.148Z,28.01
2023-02-18T23:41:40.042Z,28.07
2023-02-18T23:44:13.576Z,28.08
2023-02-18T23:46:47.698Z,28.08
2023-02-18T23:49:19.901Z,28.08
2023-02-18T23:51:52.018Z,28.03
2023-02-18T23:54:23.554Z,28.02
2023-02-18T23:56:55.225Z,28.03
2023-02-18T23:59:34.750Z,28.03
